Tropical Cyclones
[Index]
Main Index Home Page Stock Weather Photos Extreme Storms Discussion Storm News and Storm Chasing Reports Tropical Cyclones / Hurricanes / Typhoons Weather Data and Links Wild Fires / Bushfires Weather Observation Techniques Weather Picture Catalogue Tornado Pictures and Reports Stock Video Footage and DVDs for sale
Season 2013-2014 Tropical Cyclone GUITO Track Map
Season 2013-2014 Summaries: [BoM-AU] [JTWC-AU] [JTWC-SIO] [JTWC-SPAC] [JTWC-SH]
<<- Previous TC | JTWC 2013-2014 Season | Next TC ->>

click for intensity scale information  Lat/long Grid: Show Hide

 Date Labels: Show Hide

Joint Typhoon Warning Centre Cyclone Data

Name: GUITO

17 Feb 2014 18:00 UTC to 22 Feb 2014 18:00 UTC

    date/time    lat    long     hPa   cat  kts
2014-02-17 18   17.2    40.3    1010         15          
2014-02-18 00   17.5    40.6    1007         20          
2014-02-18 06   17.8    40.4    1004         25          
2014-02-18 12   18.3    40.2    1000         30          
2014-02-18 18   18.8    39.9     996         35          
2014-02-19 00   19.5    39.8     989    1    45          
2014-02-19 06   20.2    39.8     985    1    50          
2014-02-19 12   21.0    39.6     982    2    55          
2014-02-19 12   21.0    39.6     982    2    55          
2014-02-19 18   22.2    39.3     978    2    60          
2014-02-19 18   22.2    39.3     978    2    60          
2014-02-20 00   23.4    39.2     974    2    65          
2014-02-20 00   23.4    39.2     974    2    65          
2014-02-20 06   24.5    38.8     974    2    65          
2014-02-20 06   24.5    38.8     974    2    65          
2014-02-20 12   25.8    38.3     978    2    60          
2014-02-20 12   25.8    38.3     978    2    60          
2014-02-20 18   27.2    38.1     978    2    60          
2014-02-20 18   27.2    38.1     978    2    60          
2014-02-21 00   28.7    38.3     982    2    55          
2014-02-21 00   28.7    38.3     982    2    55          
2014-02-21 06   29.8    38.9     982    2    55          
2014-02-21 06   29.8    38.9     982    2    55          
2014-02-21 12   30.8    39.2     985    1    50          
2014-02-21 18   31.6    39.7     989    1    45          
2014-02-22 00   32.3    40.5     993    1    40          
2014-02-22 06   32.8    41.3     996         35          
2014-02-22 12   33.4    42.0    1000         30          
2014-02-22 18   34.1    43.0    1004         25          
Winds are 1-min average.

Tropical cyclone tracks developed by Michael Bath using data from the Joint Typhoon Warning Centre Best Tracks and Google Maps.


[Australian Severe Weather index] [Copyright Notice] [Email Contacts] [Search This Site] [Privacy Policy]
Document: tropical_cyclone_guito.htm Updated: 28 June 2017